createdAt,value
2018-12-12T00:00:29.183Z,1020.93
2018-12-12T00:01:29.104Z,1020.90
2018-12-12T00:02:29.099Z,1020.92
2018-12-12T00:03:28.980Z,1020.96
2018-12-12T00:04:28.977Z,1020.95
2018-12-12T00:05:28.870Z,1020.85
2018-12-12T00:06:28.857Z,1020.96
2018-12-12T00:07:28.864Z,1020.95
2018-12-12T00:08:28.737Z,1020.93
2018-12-12T00:09:28.737Z,1020.93
2018-12-12T00:10:28.617Z,1020.95
2018-12-12T00:11:28.623Z,1020.97
2018-12-12T00:12:28.502Z,1021.00
2018-12-12T00:13:28.495Z,1020.97
2018-12-12T00:14:28.498Z,1020.99
2018-12-12T00:15:28.377Z,1021.02
2018-12-12T00:16:28.381Z,1021.02
2018-12-12T00:17:28.262Z,1021.08
2018-12-12T00:18:28.261Z,1021.04
2018-12-12T00:19:28.218Z,1021.07
2018-12-12T00:20:28.134Z,1021.04
2018-12-12T00:21:28.133Z,1021.05
2018-12-12T00:22:28.013Z,1021.04
2018-12-12T00:23:28.016Z,1021.04
2018-12-12T00:24:27.894Z,1021.05
2018-12-12T00:25:27.897Z,1021.00
2018-12-12T00:26:27.893Z,1021.00
2018-12-12T00:27:27.773Z,1020.98
2018-12-12T00:28:27.772Z,1020.95
2018-12-12T00:29:27.653Z,1020.94
2018-12-12T00:30:27.657Z,1020.86
2018-12-12T00:31:31.031Z,1020.89
2018-12-12T00:32:27.531Z,1020.95
2018-12-12T00:33:27.533Z,1020.96
2018-12-12T00:34:27.415Z,1020.97
2018-12-12T00:35:27.413Z,1020.95
2018-12-12T00:36:27.301Z,1020.95
2018-12-12T00:37:27.303Z,1020.94
2018-12-12T00:38:27.259Z,1020.91
2018-12-12T00:39:27.181Z,1020.93
2018-12-12T00:40:27.177Z,1020.91
2018-12-12T00:41:27.050Z,1020.93
2018-12-12T00:42:27.049Z,1020.90
2018-12-12T00:43:26.932Z,1020.84
2018-12-12T00:44:26.931Z,1020.91
2018-12-12T00:45:26.937Z,1020.86
2018-12-12T00:46:26.808Z,1020.86
2018-12-12T00:47:26.816Z,1020.87
2018-12-12T00:48:26.689Z,1020.81
2018-12-12T00:49:26.701Z,1020.84
2018-12-12T00:50:26.572Z,1020.82
2018-12-12T00:51:26.569Z,1020.86
2018-12-12T00:52:26.573Z,1020.82
2018-12-12T00:53:26.448Z,1020.86
2018-12-12T00:54:26.458Z,1020.88
2018-12-12T00:55:26.329Z,1020.83
2018-12-12T00:56:26.333Z,1020.87
2018-12-12T00:57:26.208Z,1020.87
2018-12-12T00:58:26.206Z,1020.86
2018-12-12T00:59:26.206Z,1020.83
2018-12-12T01:00:26.093Z,1020.85
2018-12-12T01:01:26.092Z,1020.84
2018-12-12T01:02:25.966Z,1020.88
2018-12-12T01:03:25.976Z,1020.81
2018-12-12T01:04:25.975Z,1020.85
2018-12-12T01:05:25.850Z,1020.85
2018-12-12T01:06:25.844Z,1020.87
2018-12-12T01:07:26.254Z,1020.91
2018-12-12T01:08:25.723Z,1020.88
2018-12-12T01:09:25.610Z,1020.95
2018-12-12T01:10:25.604Z,1020.94
2018-12-12T01:11:25.610Z,1020.94
2018-12-12T01:12:25.489Z,1020.97
2018-12-12T01:13:25.484Z,1020.99
2018-12-12T01:14:25.366Z,1020.98
2018-12-12T01:15:25.370Z,1020.99
2018-12-12T01:16:25.254Z,1021.01
2018-12-12T01:17:25.241Z,1021.03
2018-12-12T01:18:25.248Z,1021.01
2018-12-12T01:19:25.123Z,1020.95
2018-12-12T01:20:25.123Z,1020.97
2018-12-12T01:21:25.005Z,1020.92
2018-12-12T01:22:25.008Z,1020.96
2018-12-12T01:23:24.966Z,1020.95
2018-12-12T01:24:24.891Z,1020.97
2018-12-12T01:25:24.881Z,1020.96
2018-12-12T01:26:24.762Z,1020.97
2018-12-12T01:27:24.761Z,1020.98
2018-12-12T01:28:24.647Z,1020.94
2018-12-12T01:29:24.644Z,1020.93
2018-12-12T01:30:24.645Z,1020.92
2018-12-12T01:31:24.520Z,1020.92
2018-12-12T01:32:24.521Z,1020.95
2018-12-12T01:33:24.408Z,1020.95
2018-12-12T01:34:24.406Z,1020.93
2018-12-12T01:35:24.280Z,1020.93
2018-12-12T01:36:24.286Z,1020.93
2018-12-12T01:37:24.283Z,1020.96
2018-12-12T01:38:24.159Z,1020.95
2018-12-12T01:39:24.161Z,1020.97
2018-12-12T01:40:24.050Z,1020.95
2018-12-12T01:41:24.037Z,1021.01
2018-12-12T01:42:24.043Z,1021.00
2018-12-12T01:43:23.925Z,1021.02
2018-12-12T01:44:23.923Z,1021.05
2018-12-12T01:45:23.799Z,1021.03
2018-12-12T01:46:23.796Z,1021.05
2018-12-12T01:47:23.680Z,1021.08
2018-12-12T01:48:23.676Z,1021.06
2018-12-12T01:49:23.675Z,1021.05
2018-12-12T01:50:23.557Z,1021.05
2018-12-12T01:51:23.563Z,1021.04
2018-12-12T01:52:23.648Z,1021.07
2018-12-12T01:53:23.529Z,1021.06
2018-12-12T01:54:24.174Z,1021.11
2018-12-12T01:55:23.399Z,1021.08
2018-12-12T01:56:23.558Z,1021.08
2018-12-12T01:57:23.675Z,1021.06
2018-12-12T01:58:23.286Z,1021.10
2018-12-12T01:59:23.075Z,1021.13
2018-12-12T02:00:23.079Z,1021.09
2018-12-12T02:01:23.037Z,1021.06
2018-12-12T02:02:22.954Z,1021.08
2018-12-12T02:03:22.958Z,1021.08
2018-12-12T02:04:22.834Z,1021.07
2018-12-12T02:05:22.832Z,1021.03
2018-12-12T02:06:22.714Z,1021.07
2018-12-12T02:07:22.714Z,1021.08
2018-12-12T02:08:22.719Z,1021.12
2018-12-12T02:09:22.592Z,1021.16
2018-12-12T02:10:22.592Z,1021.15
2018-12-12T02:11:22.473Z,1021.21
2018-12-12T02:12:22.472Z,1021.19
2018-12-12T02:13:22.362Z,1021.24
2018-12-12T02:14:22.351Z,1021.22
2018-12-12T02:15:22.351Z,1021.24
2018-12-12T02:16:22.233Z,1021.26
2018-12-12T02:17:22.230Z,1021.27
2018-12-12T02:18:22.111Z,1021.28
2018-12-12T02:19:22.111Z,1021.32
2018-12-12T02:20:22.111Z,1021.29
2018-12-12T02:21:21.991Z,1021.27
2018-12-12T02:22:21.993Z,1021.26
2018-12-12T02:23:21.869Z,1021.26
2018-12-12T02:24:21.868Z,1021.25
2018-12-12T02:25:21.750Z,1021.21
2018-12-12T02:26:21.750Z,1021.23
2018-12-12T02:27:21.752Z,1021.25
2018-12-12T02:28:21.627Z,1021.22
2018-12-12T02:29:21.630Z,1021.24
2018-12-12T02:30:21.508Z,1021.25
2018-12-12T02:31:21.507Z,1021.27
2018-12-12T02:32:21.512Z,1021.25
2018-12-12T02:33:21.388Z,1021.24
2018-12-12T02:34:21.391Z,1021.29
2018-12-12T02:35:21.282Z,1021.20
2018-12-12T02:36:21.268Z,1021.22
2018-12-12T02:37:21.147Z,1021.19
2018-12-12T02:38:21.148Z,1021.21
2018-12-12T02:39:21.149Z,1021.18
2018-12-12T02:40:21.027Z,1021.20
2018-12-12T02:41:21.026Z,1021.24
2018-12-12T02:42:20.908Z,1021.26
2018-12-12T02:43:20.909Z,1021.30
2018-12-12T02:44:20.905Z,1021.32
2018-12-12T02:45:20.789Z,1021.32
2018-12-12T02:46:20.788Z,1021.36
2018-12-12T02:47:20.671Z,1021.39
2018-12-12T02:48:20.667Z,1021.30
2018-12-12T02:49:20.546Z,1021.29
2018-12-12T02:50:20.542Z,1021.33
2018-12-12T02:51:20.544Z,1021.30
2018-12-12T02:52:20.424Z,1021.27
2018-12-12T02:53:20.423Z,1021.28
2018-12-12T02:54:20.305Z,1021.31
2018-12-12T02:55:20.386Z,1021.34
2018-12-12T02:56:20.298Z,1021.37
2018-12-12T02:57:20.184Z,1021.37
2018-12-12T02:58:20.183Z,1021.36
2018-12-12T02:59:20.063Z,1021.38
2018-12-12T03:00:20.064Z,1021.36
2018-12-12T03:01:19.946Z,1021.35
2018-12-12T03:02:19.941Z,1021.37
2018-12-12T03:03:19.941Z,1021.35
2018-12-12T03:04:19.825Z,1021.37
2018-12-12T03:05:19.820Z,1021.36
2018-12-12T03:06:19.700Z,1021.41
2018-12-12T03:07:19.704Z,1021.40
2018-12-12T03:08:19.662Z,1021.42
2018-12-12T03:09:19.582Z,1021.44
2018-12-12T03:10:19.588Z,1021.45
2018-12-12T03:11:19.471Z,1021.44
2018-12-12T03:12:19.459Z,1021.42
2018-12-12T03:13:19.345Z,1021.45
2018-12-12T03:14:19.339Z,1021.49
2018-12-12T03:15:19.339Z,1021.49
2018-12-12T03:16:19.218Z,1021.51
2018-12-12T03:17:19.221Z,1021.51
2018-12-12T03:18:19.100Z,1021.52
2018-12-12T03:19:19.106Z,1021.52
2018-12-12T03:20:19.061Z,1021.54
2018-12-12T03:21:18.978Z,1021.55
2018-12-12T03:22:18.977Z,1021.55
2018-12-12T03:23:18.868Z,1021.52
2018-12-12T03:24:18.862Z,1021.53
2018-12-12T03:25:18.743Z,1021.55
2018-12-12T03:26:18.736Z,1021.51
2018-12-12T03:27:18.739Z,1021.53
2018-12-12T03:28:18.617Z,1021.52
2018-12-12T03:29:18.615Z,1021.53
2018-12-12T03:30:18.505Z,1021.54
2018-12-12T03:31:18.495Z,1021.54
2018-12-12T03:32:18.471Z,1021.51
2018-12-12T03:33:18.377Z,1021.47
2018-12-12T03:34:18.372Z,1021.50
2018-12-12T03:35:18.253Z,1021.47
2018-12-12T03:36:18.258Z,1021.43
2018-12-12T03:37:18.133Z,1021.38
2018-12-12T03:38:18.134Z,1021.38
2018-12-12T03:39:18.146Z,1021.37
2018-12-12T03:40:18.021Z,1021.37
2018-12-12T03:41:18.020Z,1021.37
2018-12-12T03:42:17.898Z,1021.37
2018-12-12T03:43:17.900Z,1021.33
2018-12-12T03:44:17.856Z,1021.35
2018-12-12T03:45:17.784Z,1021.36
2018-12-12T03:46:17.778Z,1021.35
2018-12-12T03:47:17.661Z,1021.39
2018-12-12T03:48:17.652Z,1021.40
2018-12-12T03:49:17.614Z,1021.40
2018-12-12T03:50:17.530Z,1021.38
2018-12-12T03:51:17.538Z,1021.40
2018-12-12T03:52:17.419Z,1021.38
2018-12-12T03:53:17.411Z,1021.40
2018-12-12T03:54:17.296Z,1021.42
2018-12-12T03:55:17.290Z,1021.47
2018-12-12T03:56:17.294Z,1021.44
2018-12-12T03:57:17.179Z,1021.41
2018-12-12T03:58:17.172Z,1021.40
2018-12-12T03:59:17.049Z,1021.37
2018-12-12T04:00:17.050Z,1021.38
2018-12-12T04:01:16.929Z,1021.34
2018-12-12T04:02:16.927Z,1021.35
2018-12-12T04:03:16.941Z,1021.37
2018-12-12T04:04:16.814Z,1021.36
2018-12-12T04:05:16.810Z,1021.37
2018-12-12T04:06:16.806Z,1021.38
2018-12-12T04:07:16.810Z,1021.40
2018-12-12T04:08:16.703Z,1021.38
2018-12-12T04:09:16.671Z,1021.38
2018-12-12T04:10:16.675Z,1021.35
2018-12-12T04:11:16.446Z,1021.35
2018-12-12T04:12:16.445Z,1021.34
2018-12-12T04:13:16.327Z,1021.35
2018-12-12T04:14:16.328Z,1021.36
2018-12-12T04:15:16.325Z,1021.32
2018-12-12T04:16:16.204Z,1021.31
2018-12-12T04:17:16.206Z,1021.30
2018-12-12T04:18:16.083Z,1021.32
2018-12-12T04:19:16.085Z,1021.33
2018-12-12T04:20:16.080Z,1021.34
2018-12-12T04:21:15.962Z,1021.36
2018-12-12T04:22:15.968Z,1021.36
2018-12-12T04:23:15.847Z,1021.39
2018-12-12T04:24:15.849Z,1021.36
2018-12-12T04:25:15.731Z,1021.38
2018-12-12T04:26:15.729Z,1021.38
2018-12-12T04:27:15.722Z,1021.39
2018-12-12T04:28:15.604Z,1021.38
2018-12-12T04:29:15.656Z,1021.38
2018-12-12T04:30:15.483Z,1021.37
2018-12-12T04:31:15.487Z,1021.39
2018-12-12T04:32:15.476Z,1021.35
2018-12-12T04:33:15.363Z,1021.38
2018-12-12T04:34:15.362Z,1021.34
2018-12-12T04:35:15.249Z,1021.33
2018-12-12T04:36:15.248Z,1021.29
2018-12-12T04:37:15.120Z,1021.32
2018-12-12T04:38:15.125Z,1021.32
2018-12-12T04:39:15.125Z,1021.32
2018-12-12T04:40:15.003Z,1021.32
2018-12-12T04:41:15.003Z,1021.35
2018-12-12T04:42:14.881Z,1021.37
2018-12-12T04:43:14.878Z,1021.36
2018-12-12T04:44:14.841Z,1021.29
2018-12-12T04:45:14.766Z,1021.27
2018-12-12T04:46:14.757Z,1021.30
2018-12-12T04:47:14.640Z,1021.35
2018-12-12T04:48:14.639Z,1021.33
2018-12-12T04:49:14.517Z,1021.35
2018-12-12T04:50:14.516Z,1021.35
2018-12-12T04:51:14.518Z,1021.35
2018-12-12T04:52:14.398Z,1021.34
2018-12-12T04:53:14.395Z,1021.35
2018-12-12T04:54:14.282Z,1021.33
2018-12-12T04:55:14.282Z,1021.34
2018-12-12T04:56:14.156Z,1021.33
2018-12-12T04:57:14.162Z,1021.40
2018-12-12T04:58:14.156Z,1021.28
2018-12-12T04:59:14.035Z,1021.34
2018-12-12T05:00:14.044Z,1021.37
2018-12-12T05:01:13.917Z,1021.41
2018-12-12T05:02:13.922Z,1021.39
2018-12-12T05:03:13.878Z,1021.42
2018-12-12T05:04:13.794Z,1021.41
2018-12-12T05:05:13.792Z,1021.43
2018-12-12T05:06:13.676Z,1021.44
2018-12-12T05:07:13.674Z,1021.45
2018-12-12T05:08:13.552Z,1021.49
2018-12-12T05:09:13.553Z,1021.41
2018-12-12T05:10:13.554Z,1021.48
2018-12-12T05:11:13.433Z,1021.47
2018-12-12T05:12:13.462Z,1021.46
2018-12-12T05:13:13.313Z,1021.49
2018-12-12T05:14:13.320Z,1021.48
2018-12-12T05:15:13.202Z,1021.49
2018-12-12T05:16:13.197Z,1021.50
2018-12-12T05:17:13.193Z,1021.47
2018-12-12T05:18:13.080Z,1021.42
2018-12-12T05:19:13.074Z,1021.46
2018-12-12T05:20:12.953Z,1021.45
2018-12-12T05:21:12.963Z,1021.45
2018-12-12T05:22:12.962Z,1021.40
2018-12-12T05:23:12.830Z,1021.46
2018-12-12T05:24:12.834Z,1021.43
2018-12-12T05:25:12.719Z,1021.42
2018-12-12T05:26:12.715Z,1021.44
2018-12-12T05:27:12.591Z,1021.39
2018-12-12T05:28:12.587Z,1021.45
2018-12-12T05:29:12.590Z,1021.48
2018-12-12T05:30:12.470Z,1021.47
2018-12-12T05:31:12.469Z,1021.49
2018-12-12T05:32:12.352Z,1021.46
2018-12-12T05:33:12.356Z,1021.48
2018-12-12T05:34:12.349Z,1021.48
2018-12-12T05:35:12.235Z,1021.52
2018-12-12T05:36:12.240Z,1021.51
2018-12-12T05:37:12.111Z,1021.48
2018-12-12T05:38:12.107Z,1021.50
2018-12-12T05:39:11.988Z,1021.54
2018-12-12T05:40:11.986Z,1021.51
2018-12-12T05:41:11.995Z,1021.54
2018-12-12T05:42:11.866Z,1021.56
2018-12-12T05:43:11.866Z,1021.57
2018-12-12T05:44:11.745Z,1021.51
2018-12-12T05:45:11.745Z,1021.56
2018-12-12T05:46:11.747Z,1021.55
2018-12-12T05:47:11.639Z,1021.57
2018-12-12T05:48:11.633Z,1021.60
2018-12-12T05:49:11.509Z,1021.57
2018-12-12T05:50:11.505Z,1021.57
2018-12-12T05:51:11.384Z,1021.61
2018-12-12T05:52:11.391Z,1021.60
2018-12-12T05:53:11.384Z,1021.67
2018-12-12T05:54:11.270Z,1021.64
2018-12-12T05:55:11.261Z,1021.67
2018-12-12T05:56:14.128Z,1021.69
2018-12-12T05:57:11.149Z,1021.69
2018-12-12T05:58:11.031Z,1021.66
2018-12-12T05:59:11.030Z,1021.71
2018-12-12T06:00:11.022Z,1021.69
2018-12-12T06:01:10.900Z,1021.72
2018-12-12T06:02:10.909Z,1021.72
2018-12-12T06:03:10.782Z,1021.72
2018-12-12T06:04:10.786Z,1021.70
2018-12-12T06:05:10.783Z,1021.74
2018-12-12T06:06:10.664Z,1021.72
2018-12-12T06:07:10.673Z,1021.74
2018-12-12T06:08:10.541Z,1021.72
2018-12-12T06:09:10.541Z,1021.72
2018-12-12T06:10:10.425Z,1021.72
2018-12-12T06:11:10.431Z,1021.72
2018-12-12T06:12:10.420Z,1021.76
2018-12-12T06:13:10.299Z,1021.72
2018-12-12T06:14:10.298Z,1021.75
2018-12-12T06:15:10.189Z,1021.73
2018-12-12T06:16:10.184Z,1021.74
2018-12-12T06:17:10.178Z,1021.70
2018-12-12T06:18:10.063Z,1021.75
2018-12-12T06:19:10.057Z,1021.78
2018-12-12T06:20:09.939Z,1021.76
2018-12-12T06:21:09.943Z,1021.79
2018-12-12T06:22:09.817Z,1021.78
2018-12-12T06:23:09.817Z,1021.78
2018-12-12T06:24:09.819Z,1021.76
2018-12-12T06:25:09.719Z,1021.79
2018-12-12T06:26:09.695Z,1021.80
2018-12-12T06:27:09.587Z,1021.78
2018-12-12T06:28:09.581Z,1021.82
2018-12-12T06:29:09.582Z,1021.84
2018-12-12T06:30:09.457Z,1021.81
2018-12-12T06:31:09.454Z,1021.82
2018-12-12T06:32:09.334Z,1021.82
2018-12-12T06:33:09.335Z,1021.86
2018-12-12T06:34:09.212Z,1021.90
2018-12-12T06:35:09.214Z,1021.86
2018-12-12T06:36:09.213Z,1021.83
2018-12-12T06:37:09.095Z,1021.87
2018-12-12T06:38:09.099Z,1021.88
2018-12-12T06:39:08.980Z,1021.89
2018-12-12T06:40:08.974Z,1021.90
2018-12-12T06:41:08.972Z,1021.91
2018-12-12T06:42:08.852Z,1021.94
2018-12-12T06:43:08.853Z,1021.94
2018-12-12T06:44:08.736Z,1021.91
2018-12-12T06:45:08.743Z,1021.97
2018-12-12T06:46:08.625Z,1021.93
2018-12-12T06:47:08.618Z,1021.91
2018-12-12T06:48:08.611Z,1021.93
2018-12-12T06:49:08.499Z,1021.97
2018-12-12T06:50:08.492Z,1021.96
2018-12-12T06:51:08.375Z,1021.98
2018-12-12T06:52:08.370Z,1021.98
2018-12-12T06:53:08.370Z,1021.99
2018-12-12T06:54:08.249Z,1022.03
2018-12-12T06:55:08.260Z,1022.00
2018-12-12T06:56:08.129Z,1022.02
2018-12-12T06:57:08.128Z,1022.00
2018-12-12T06:58:08.009Z,1021.98
2018-12-12T06:59:08.014Z,1022.00
2018-12-12T07:00:08.010Z,1021.97
2018-12-12T07:01:07.887Z,1021.99
2018-12-12T07:02:07.887Z,1021.98
2018-12-12T07:03:07.769Z,1022.00
2018-12-12T07:04:07.771Z,1022.01
2018-12-12T07:05:07.770Z,1022.03
2018-12-12T07:06:07.650Z,1022.01
2018-12-12T07:07:07.646Z,1022.07
2018-12-12T07:08:07.526Z,1022.06
2018-12-12T07:09:07.536Z,1022.04
2018-12-12T07:10:07.408Z,1022.10
2018-12-12T07:11:07.406Z,1022.04
2018-12-12T07:12:07.405Z,1022.07
2018-12-12T07:13:07.285Z,1022.09
2018-12-12T07:14:07.294Z,1022.06
2018-12-12T07:15:08.145Z,1022.12
2018-12-12T07:16:07.166Z,1022.09
2018-12-12T07:17:07.164Z,1022.10
2018-12-12T07:18:07.044Z,1022.10
2018-12-12T07:19:07.044Z,1022.05
2018-12-12T07:20:06.926Z,1022.09
2018-12-12T07:21:06.927Z,1022.08
2018-12-12T07:22:06.923Z,1022.09
2018-12-12T07:23:06.806Z,1022.09
2018-12-12T07:24:06.805Z,1022.09
2018-12-12T07:25:06.683Z,1022.10
2018-12-12T07:26:06.687Z,1022.13
2018-12-12T07:27:06.564Z,1022.05
2018-12-12T07:28:06.563Z,1022.08
2018-12-12T07:29:06.562Z,1022.12
2018-12-12T07:30:06.441Z,1022.11
2018-12-12T07:31:06.447Z,1022.12
2018-12-12T07:32:06.398Z,1022.12
2018-12-12T07:33:06.321Z,1022.11
2018-12-12T07:34:06.321Z,1022.15
2018-12-12T07:35:06.202Z,1022.13
2018-12-12T07:36:06.209Z,1022.15
2018-12-12T07:37:06.083Z,1022.14
2018-12-12T07:38:06.083Z,1022.16
2018-12-12T07:39:05.959Z,1022.15
2018-12-12T07:40:05.958Z,1022.19
2018-12-12T07:41:05.959Z,1022.20
2018-12-12T07:42:05.845Z,1022.21
2018-12-12T07:43:05.846Z,1022.17
2018-12-12T07:44:05.720Z,1022.24
2018-12-12T07:45:05.719Z,1022.22
2018-12-12T07:46:05.720Z,1022.22
2018-12-12T07:47:05.600Z,1022.26
2018-12-12T07:48:05.601Z,1022.24
2018-12-12T07:49:05.488Z,1022.25
2018-12-12T07:50:05.487Z,1022.30
2018-12-12T07:51:05.440Z,1022.31
2018-12-12T07:52:05.368Z,1022.32
2018-12-12T07:53:05.356Z,1022.35
2018-12-12T07:54:05.245Z,1022.32
2018-12-12T07:55:05.237Z,1022.35
2018-12-12T07:56:05.119Z,1022.36
2018-12-12T07:57:05.115Z,1022.37
2018-12-12T07:58:05.116Z,1022.41
2018-12-12T07:59:04.997Z,1022.44
2018-12-12T08:00:04.995Z,1022.42
2018-12-12T08:01:04.882Z,1022.41
2018-12-12T08:02:04.874Z,1022.42
2018-12-12T08:03:06.557Z,1022.46
2018-12-12T08:04:04.754Z,1022.45
2018-12-12T08:05:04.756Z,1022.43
2018-12-12T08:06:04.736Z,1022.43
2018-12-12T08:07:04.641Z,1022.42
2018-12-12T08:08:04.522Z,1022.47
2018-12-12T08:09:04.523Z,1022.45
2018-12-12T08:10:04.521Z,1022.49
2018-12-12T08:11:04.412Z,1022.48
2018-12-12T08:12:04.395Z,1022.49
2018-12-12T08:13:04.281Z,1022.51
2018-12-12T08:14:04.284Z,1022.50
2018-12-12T08:15:04.273Z,1022.49
2018-12-12T08:16:04.152Z,1022.54
2018-12-12T08:17:04.154Z,1022.52
2018-12-12T08:18:04.036Z,1022.54
2018-12-12T08:19:04.038Z,1022.54
2018-12-12T08:20:04.045Z,1022.51
2018-12-12T08:21:03.911Z,1022.52
2018-12-12T08:22:03.910Z,1022.53
2018-12-12T08:23:03.805Z,1022.51
2018-12-12T08:24:03.792Z,1022.55
2018-12-12T08:25:03.669Z,1022.55
2018-12-12T08:26:03.672Z,1022.55
2018-12-12T08:27:03.668Z,1022.57
2018-12-12T08:28:03.557Z,1022.54
2018-12-12T08:29:03.554Z,1022.55
2018-12-12T08:30:03.435Z,1022.56
2018-12-12T08:31:03.435Z,1022.53
2018-12-12T08:32:03.435Z,1022.55
2018-12-12T08:33:03.309Z,1022.54
2018-12-12T08:34:03.306Z,1022.56
2018-12-12T08:35:03.190Z,1022.55
2018-12-12T08:36:03.188Z,1022.56
2018-12-12T08:37:03.184Z,1022.58
2018-12-12T08:38:03.066Z,1022.59
2018-12-12T08:39:03.070Z,1022.60
2018-12-12T08:40:02.955Z,1022.58
2018-12-12T08:41:02.966Z,1022.61
2018-12-12T08:42:02.832Z,1022.61
2018-12-12T08:43:02.831Z,1022.61
2018-12-12T08:44:02.828Z,1022.67
2018-12-12T08:45:02.705Z,1022.64
2018-12-12T08:46:02.715Z,1022.68
2018-12-12T08:47:02.591Z,1022.65
2018-12-12T08:48:02.586Z,1022.70
2018-12-12T08:49:02.586Z,1022.68
2018-12-12T08:50:02.470Z,1022.73
2018-12-12T08:51:02.465Z,1022.67
2018-12-12T08:52:02.355Z,1022.70
2018-12-12T08:53:02.346Z,1022.71
2018-12-12T08:54:02.415Z,1022.71
2018-12-12T08:55:02.224Z,1022.74
2018-12-12T08:56:02.928Z,1022.77
2018-12-12T08:57:02.104Z,1022.73
2018-12-12T08:58:02.104Z,1022.74
2018-12-12T08:59:01.981Z,1022.75
2018-12-12T09:00:01.983Z,1022.74
2018-12-12T09:01:01.982Z,1022.76
2018-12-12T09:02:01.862Z,1022.74
2018-12-12T09:03:01.860Z,1022.71
2018-12-12T09:04:01.829Z,1022.72
2018-12-12T09:05:01.873Z,1022.72
2018-12-12T09:06:01.836Z,1022.72
2018-12-12T09:07:01.750Z,1022.75
2018-12-12T09:08:01.748Z,1022.71
2018-12-12T09:09:01.509Z,1022.75
2018-12-12T09:10:01.504Z,1022.75
2018-12-12T09:11:01.466Z,1022.78
2018-12-12T09:12:01.386Z,1022.77
2018-12-12T09:13:01.381Z,1022.78
2018-12-12T09:14:01.262Z,1022.78
2018-12-12T09:15:01.259Z,1022.75
2018-12-12T09:16:01.263Z,1022.78
2018-12-12T09:17:01.142Z,1022.78
2018-12-12T09:18:01.139Z,1022.78
2018-12-12T09:19:01.018Z,1022.79
2018-12-12T09:20:01.020Z,1022.81
2018-12-12T09:21:00.909Z,1022.81
2018-12-12T09:22:00.907Z,1022.81
2018-12-12T09:23:00.896Z,1022.83
2018-12-12T09:24:00.785Z,1022.80
2018-12-12T09:25:00.777Z,1022.80
2018-12-12T09:26:00.656Z,1022.80
2018-12-12T09:27:00.663Z,1022.82
2018-12-12T09:28:00.655Z,1022.77
2018-12-12T09:29:00.538Z,1022.80
2018-12-12T09:30:00.544Z,1022.79
2018-12-12T09:31:00.426Z,1022.81
2018-12-12T09:32:00.418Z,1022.83
2018-12-12T09:33:00.415Z,1022.82
2018-12-12T09:34:00.297Z,1022.81
2018-12-12T09:35:00.294Z,1022.84
2018-12-12T09:36:00.180Z,1022.85
2018-12-12T09:37:00.181Z,1022.87
2018-12-12T09:38:00.057Z,1022.87
2018-12-12T09:39:00.062Z,1022.88
2018-12-12T09:40:00.056Z,1022.88
2018-12-12T09:40:59.933Z,1022.90
2018-12-12T09:41:59.941Z,1022.88
2018-12-12T09:42:59.817Z,1022.90
2018-12-12T09:43:59.812Z,1022.89
2018-12-12T09:44:59.812Z,1022.93
2018-12-12T09:45:59.702Z,1022.98
2018-12-12T09:46:59.692Z,1022.97
2018-12-12T09:47:59.580Z,1022.93
2018-12-12T09:48:59.573Z,1022.97
2018-12-12T09:49:59.570Z,1022.95
2018-12-12T09:51:06.889Z,1022.93
2018-12-12T09:51:59.451Z,1022.93
2018-12-12T09:52:59.380Z,1022.91
2018-12-12T09:53:59.330Z,1022.88
2018-12-12T09:54:59.295Z,1022.87
2018-12-12T09:55:59.212Z,1022.87
2018-12-12T09:56:59.210Z,1022.88
2018-12-12T09:57:59.090Z,1022.85
2018-12-12T09:58:59.091Z,1022.85
2018-12-12T09:59:58.969Z,1022.88
2018-12-12T10:00:58.968Z,1022.88
2018-12-12T10:01:58.969Z,1022.85
2018-12-12T10:02:58.855Z,1022.82
2018-12-12T10:03:58.848Z,1022.82
2018-12-12T10:04:58.734Z,1022.85
2018-12-12T10:05:58.730Z,1022.87
2018-12-12T10:06:58.733Z,1022.87
2018-12-12T10:07:58.615Z,1022.85
2018-12-12T10:08:58.608Z,1022.86
2018-12-12T10:09:58.490Z,1022.87
2018-12-12T10:10:58.489Z,1022.88
2018-12-12T10:11:58.488Z,1022.88
2018-12-12T10:12:58.367Z,1022.89
2018-12-12T10:13:58.366Z,1022.91
2018-12-12T10:14:58.246Z,1022.91
2018-12-12T10:15:58.255Z,1022.90
2018-12-12T10:16:58.260Z,1022.92
2018-12-12T10:17:58.129Z,1022.98
2018-12-12T10:18:58.130Z,1022.97
2018-12-12T10:19:58.004Z,1022.97
2018-12-12T10:20:58.010Z,1022.95
2018-12-12T10:21:58.004Z,1022.95
2018-12-12T10:22:57.885Z,1022.95
2018-12-12T10:23:57.885Z,1022.94
2018-12-12T10:24:57.765Z,1022.92
2018-12-12T10:25:57.763Z,1022.89
2018-12-12T10:26:57.726Z,1022.88
2018-12-12T10:27:57.644Z,1022.89
2018-12-12T10:28:57.649Z,1022.89
2018-12-12T10:29:57.522Z,1022.83
2018-12-12T10:30:57.521Z,1022.82
2018-12-12T10:31:57.411Z,1022.83
2018-12-12T10:32:57.400Z,1022.80
2018-12-12T10:33:57.401Z,1022.84
2018-12-12T10:34:57.288Z,1022.77
2018-12-12T10:35:57.281Z,1022.80
2018-12-12T10:36:57.169Z,1022.80
2018-12-12T10:37:57.159Z,1022.74
2018-12-12T10:38:57.166Z,1022.78
2018-12-12T10:39:57.048Z,1022.76
2018-12-12T10:40:57.106Z,1022.76
2018-12-12T10:41:56.920Z,1022.76
2018-12-12T10:42:56.928Z,1022.79
2018-12-12T10:43:56.920Z,1022.76
2018-12-12T10:44:56.800Z,1022.77
2018-12-12T10:45:56.802Z,1022.80
2018-12-12T10:46:56.678Z,1022.77
2018-12-12T10:47:56.676Z,1022.80
2018-12-12T10:48:56.679Z,1022.80
2018-12-12T10:49:56.558Z,1022.79
2018-12-12T10:50:56.560Z,1022.75
2018-12-12T10:51:56.439Z,1022.81
2018-12-12T10:52:56.444Z,1022.75
2018-12-12T10:53:56.439Z,1022.76
2018-12-12T10:54:56.322Z,1022.76
2018-12-12T10:55:56.318Z,1022.76
2018-12-12T10:56:56.197Z,1022.74
2018-12-12T10:57:56.204Z,1022.71
2018-12-12T10:58:56.198Z,1022.69
2018-12-12T10:59:56.076Z,1022.69
2018-12-12T11:00:56.074Z,1022.72
2018-12-12T11:01:55.962Z,1022.69
2018-12-12T11:02:55.956Z,1022.72
2018-12-12T11:03:55.955Z,1022.70
2018-12-12T11:04:55.840Z,1022.66
2018-12-12T11:05:55.835Z,1022.70
2018-12-12T11:06:55.721Z,1022.66
2018-12-12T11:07:55.714Z,1022.71
2018-12-12T11:08:55.713Z,1022.68
2018-12-12T11:09:55.599Z,1022.68
2018-12-12T11:10:55.594Z,1022.62
2018-12-12T11:11:55.474Z,1022.61
2018-12-12T11:12:55.477Z,1022.59
2018-12-12T11:13:55.476Z,1022.60
2018-12-12T11:14:55.355Z,1022.57
2018-12-12T11:15:55.356Z,1022.57
2018-12-12T11:16:55.243Z,1022.56
2018-12-12T11:17:55.239Z,1022.56
2018-12-12T11:18:55.197Z,1022.56
2018-12-12T11:19:55.112Z,1022.52
2018-12-12T11:20:55.115Z,1022.50
2018-12-12T11:21:54.992Z,1022.51
2018-12-12T11:22:54.997Z,1022.49
2018-12-12T11:23:54.871Z,1022.49
2018-12-12T11:24:54.870Z,1022.46
2018-12-12T11:25:54.877Z,1022.44
2018-12-12T11:26:54.758Z,1022.44
2018-12-12T11:27:54.751Z,1022.40
2018-12-12T11:28:54.638Z,1022.41
2018-12-12T11:29:54.638Z,1022.36
2018-12-12T11:30:54.630Z,1022.36
2018-12-12T11:31:54.515Z,1022.37
2018-12-12T11:32:54.518Z,1022.40
2018-12-12T11:33:54.389Z,1022.41
2018-12-12T11:34:54.398Z,1022.43
2018-12-12T11:35:54.392Z,1022.40
2018-12-12T11:36:54.275Z,1022.35
2018-12-12T11:37:54.282Z,1022.37
2018-12-12T11:38:54.154Z,1022.38
2018-12-12T11:39:54.147Z,1022.39
2018-12-12T11:40:54.155Z,1022.36
2018-12-12T11:41:54.041Z,1022.36
2018-12-12T11:42:54.030Z,1022.37
2018-12-12T11:43:53.918Z,1022.30
2018-12-12T11:44:53.914Z,1022.32
2018-12-12T11:45:53.908Z,1022.26
2018-12-12T11:46:53.791Z,1022.26
2018-12-12T11:47:53.793Z,1022.24
2018-12-12T11:48:53.678Z,1022.26
2018-12-12T11:49:53.667Z,1022.24
2018-12-12T11:50:53.674Z,1022.24
2018-12-12T11:51:53.548Z,1022.23
2018-12-12T11:52:53.545Z,1022.26
2018-12-12T11:53:53.424Z,1022.22
2018-12-12T11:54:53.425Z,1022.26
2018-12-12T11:55:53.424Z,1022.21
2018-12-12T11:56:53.317Z,1022.21
2018-12-12T11:57:53.305Z,1022.22
2018-12-12T11:58:53.183Z,1022.23
2018-12-12T11:59:53.183Z,1022.22
2018-12-12T12:00:53.187Z,1022.20
2018-12-12T12:01:53.064Z,1022.23
2018-12-12T12:02:53.069Z,1022.25
2018-12-12T12:03:56.781Z,1022.22
2018-12-12T12:04:52.948Z,1022.24